Main page
Satellite images 10-day forecastsClimateMarine weather Cyclones Lightning AirportsFAQ Newsletter About
Weather : Europe Africa North America South America Asia Australia-Oceania Others
Languages Contact

Dortmund, Germany

Dortmund Airport

latitude: 51-31N, longitude: 007-37E, elevation: 127 m


METAR: EDLW 290850Z VRB03KT 9999 FEW043 19/12 Q1023 RMK ATIS L
TAF: EDLW 290500Z 2906/3006 15006KT 9999 FEW040 BECMG 2907/2910 07005KT BECMG 2919/2922 13005KT

Time: 11:16 (09:16 UTC)

Current weather observation

The report was made 26 minutes ago, at 08:50 UTC
Wind 3 kt from variable directions
Temperature 19°C
Humidity 64%
Pressure 1023 hPa
Visibility 10 km or more
Few clouds at a height of 4300 ft

Change units

Forecast

The report was made 4 hours and 16 minutes ago, at 05:00 UTC
Forecast valid from 29 at 06 UTC to 30 at 06 UTC
Wind 6 kt from the South/Southeast
Visibility 10 km or more
Few clouds at a height of 4000 ft
Becoming
from 29 at 07 UTC to 29 at 10 UTC
Wind 5 kt from the East/Northeast
Becoming
from 29 at 19 UTC to 29 at 22 UTC
Wind 5 kt from the Southeast
The information on this site is subject to a disclaimer
Weather : Europe Africa North America South America Asia Australia-Oceania Others
Satellite images 10-day forecastsClimateMarine weather Cyclones Lightning AirportsFAQ Languages Contact Newsletter About